Miyako Airport Miyako City JP
ICAO: ROMY
IATA:
Category: Medium
Scheduled Services:

Elevation: 150 ft
TransAlt. 14000 ft.

Airport Communications:
SHIMOJI APP:120.3
TWR:118.2

ROMY Zoom In..

If you have problems with the map follow the link
https://www.worldairports.se/pages/airport.php?
ICAO=ROMY

Runways:

(A) RW 04 length 6562 ft width 148 ft
---- / hdg 42

(B) RW 22 length 6562 ft width 148 ft
ILS 108.90 / hdg 222

Location; ROMY
Day. 22 / Time. 11.00 Zulu
* QNH: 1015
* Temperature: 22° c. 71.6°f.
* Wind from: 010° Speed 02 kn.
Dewpoint: 19° c.
Visibility: 10 km or more.
Clouds: Few 2000 ft.

ROMY 221100Z 01002KT 9999 FEW020 22/19 Q1015


Wind From 010°
Speed 02 kn.

 
 
jpsmedia.com for Web Design worldairports.se 2018   terms of use